Aviation Digital Data Service (ADDS)

Output produced by METARs form (0423 UTC 30 May 2015)
found at http://aviationweather.gov/adds/metars/
 
KBHB 300401Z 3004/3024 20005KT 1SM BR OVC002 
     FM301400 19008KT P6SM SCT250 AMD LTD TO CLD VIS AND WIND